Provincetown, MA

9:38 PM EDT on July 25, 2016 (GMT -0400)
Provincetown Municipal | | Change Station

Elev 7 ft 42.07 °N, 70.22 °W | Updated 42 minutes ago

Clear
Clear
74 °F
Feels Like 74 °F
N
13
Wind Variable Wind from SSW

Today
High -- | Low -- °F
--% Chance of Precip.
Yesterday
High -- | Low -- °F
Precip. -- in
Pressure 29.83 in
Visibility 10.0 miles
Clouds Clear
Dew Point 69 °F
Humidity 85%
Rainfall 0.00 in
Snow Depth Not available.
5:27 AM 8:06 PM
Waning Gibbous, 60% visible
METAR KPVC 260056Z AUTO 20011KT 10SM CLR 23/21 A2983 RMK AO2 SLP102 T02330206
Pressure 29.83 in
Visibility 10.0 miles
Clouds Clear
Dew Point 69 °F
Humidity 85%
Rainfall 0.00 in
Snow Depth Not available.
5:27 AM 8:06 PM
Waning Gibbous, 60% visible
METAR KPVC 260056Z AUTO 20011KT 10SM CLR 23/21 A2983 RMK AO2 SLP102 T02330206
Record highs are possible for parts of the Northeast Monday and Tuesday, as parts of the central U.S. take a little breather from the worst of summer's dog day heat.

Expansive high pressure in the upper atmosphere will focus on parts of the East and West this week, sending heat indices well into the triple digits from the Mid-Atlantic states into the South.

10-Day Weather Forecast

Almanac

Astronomy

Jul. 25, 2016 Rise Set
Actual Time
Civil Twilight
Nautical Twilight
Astronomical Twilight
Moon
Length of Visible Light
Length of Day
Tomorrow will be .
, % of the Moon is Illuminated

Today's Extremes

State Highs State Lows

Community

WunderPhotos

Upload Photos

1,927,489 photos uploaded!

WunderBlog® & News

Nearby

Air Quality

  Air Quality AQ Index Pollutant
Not available.

Snow Depth

Station Depth Elevation

Earthquake Activity

City Distance Mag. Time & Date
Minimum magnitude displayed is 2.5.

Coastal Water Temperatures

Place Temperature

Stations

Nearby Weather Stations

Station Location Temp. Windchill Dew Point Humidity Wind Precip. Elev Updated Type
                   

Watches & Warnings

There are currently no watches in effect.